Time;durP1;ratioP1;P1;durP2;ratioP2;P2;SDS_P1;SDS_P2;PMS_P1;PMS_P2;Temp;Humidity;BMP_temperature;BMP_pressure;BME280_temperature;BME280_humidity;BME280_pressure;Samples;Min_cycle;Max_cycle;Signal;HPM_P1;HPM_P2
2022/06/02 00:00:05;;;;;;;16.90;15.40;;;11.30;99.90;;;-141.84;96.63;16711.66;5070577;28;20225;-60
2022/06/02 00:02:56;;;;;;;20.63;18.73;;;11.20;99.90;;;-141.84;96.16;16768.53;5065142;28;20270;-58
2022/06/02 00:05:30;;;;;;;21.03;19.10;;;11.20;99.90;;;-141.84;96.44;16758.38;5070404;28;20256;-59
2022/06/02 00:08:20;;;;;;;17.23;15.50;;;11.10;99.90;;;-141.84;96.96;16760.41;5070473;28;20640;-61
2022/06/02 00:11:09;;;;;;;14.73;13.43;;;11.10;99.90;;;-141.84;97.26;16695.41;5070390;28;20722;-59
2022/06/02 00:13:56;;;;;;;13.77;12.47;;;11.10;99.90;;;-141.84;97.44;16697.44;5070281;28;20314;-59
2022/06/02 00:16:33;;;;;;;13.50;12.30;;;11.00;99.90;;;-141.84;97.18;16711.66;5070232;28;20880;-59
2022/06/02 00:19:16;;;;;;;12.57;11.47;;;11.00;99.90;;;-141.84;98.08;16644.66;5071241;28;20192;-59
2022/06/02 00:21:56;;;;;;;10.67;9.77;;;10.90;99.90;;;-141.84;97.46;16699.47;5074360;28;20204;-59
2022/06/02 00:24:43;;;;;;;9.27;8.47;;;10.90;99.90;;;-141.84;98.06;16640.59;5074169;28;20220;-60
2022/06/02 00:27:28;;;;;;;7.33;6.63;;;10.90;99.90;;;-141.84;97.86;16656.84;5074544;28;20599;-59
2022/06/02 00:30:09;;;;;;;8.10;7.50;;;10.80;99.90;;;-141.84;98.48;16628.41;5074180;28;20256;-58
2022/06/02 00:32:51;;;;;;;7.63;7.03;;;10.80;99.90;;;-141.84;98.71;16624.34;5074386;28;20255;-58
2022/06/02 00:35:36;;;;;;;7.63;6.93;;;10.70;99.90;;;-141.84;98.34;16616.22;5074136;28;20220;-59
2022/06/02 00:38:18;;;;;;;7.33;6.73;;;10.70;99.90;;;-141.84;98.48;16591.84;5074212;28;20684;-61
2022/06/02 00:40:46;;;;;;;8.07;7.37;;;10.60;99.90;;;-141.84;98.55;16608.09;5073833;28;20658;-61
2022/06/02 00:43:38;;;;;;;10.83;9.83;;;10.60;99.90;;;-141.84;99.12;16587.78;5074040;28;20750;-59
2022/06/02 00:46:23;;;;;;;18.63;16.93;;;10.60;99.90;;;-141.84;98.86;16579.66;5073941;28;20572;-59
2022/06/02 00:49:09;;;;;;;14.53;13.13;;;10.60;99.90;;;-141.84;99.91;16549.22;5074434;28;20181;-58
2022/06/02 00:51:50;;;;;;;10.67;9.77;;;10.50;99.90;;;-141.84;100.00;16537.03;5073882;28;20209;-57
2022/06/02 00:57:34;;;;;;;13.43;11.43;;;10.40;99.90;;;-141.84;100.00;16518.75;5073530;28;20315;-59
2022/06/02 01:00:14;;;;;;;12.23;10.93;;;10.40;99.90;;;-141.84;100.00;16502.50;5073668;28;20315;-59
2022/06/02 01:02:50;;;;;;;16.93;15.23;;;10.40;99.90;;;-141.84;100.00;16524.84;5073686;28;20775;-58
2022/06/02 01:05:36;;;;;;;14.23;12.93;;;10.30;99.90;;;-141.84;100.00;16526.88;5073487;28;20228;-59
2022/06/02 01:08:22;;;;;;;12.60;11.50;;;10.40;99.90;;;-141.84;99.46;16551.25;5073630;28;20235;-57
2022/06/02 01:11:10;;;;;;;10.27;9.30;;;10.40;99.90;;;-141.84;99.88;16547.19;5073533;28;20220;-58
2022/06/02 01:13:58;;;;;;;9.07;8.27;;;10.40;99.90;;;-141.84;100.00;16514.69;5073669;28;20227;-61
2022/06/02 01:16:44;;;;;;;9.30;8.40;;;10.20;99.90;;;-141.84;100.00;16498.44;5073533;28;20303;-59
2022/06/02 01:19:53;;;;;;;9.13;8.33;;;10.20;99.90;;;-141.84;100.00;16496.41;5073627;28;20184;-58
2022/06/02 01:22:59;;;;;;;9.07;8.27;;;10.20;99.90;;;-141.84;100.00;16524.84;5070451;28;20307;-59
2022/06/02 01:26:07;;;;;;;8.77;8.07;;;10.10;99.90;;;-141.84;100.00;16492.34;5073195;28;20224;-59
2022/06/02 01:28:50;;;;;;;9.60;8.80;;;10.10;99.90;;;-141.84;100.00;16455.81;5073413;28;20241;-59
2022/06/02 01:31:43;;;;;;;9.67;8.70;;;10.10;99.90;;;-141.84;100.00;16516.72;5072328;28;20189;-61
2022/06/02 01:34:40;;;;;;;8.40;7.70;;;10.10;99.90;;;-141.84;100.00;16443.63;5072864;28;20557;-60
2022/06/02 01:37:21;;;;;;;8.50;7.80;;;10.10;99.90;;;-141.84;100.00;16467.97;5072685;28;20274;-59
2022/06/02 01:40:17;;;;;;;9.63;8.73;;;10.10;99.90;;;-141.84;99.77;16478.13;5073628;28;20212;-59
2022/06/02 01:42:57;;;;;;;8.67;7.90;;;10.10;99.90;;;-141.84;99.41;16484.22;5072960;28;20288;-59
2022/06/02 01:46:06;;;;;;;13.20;12.00;;;10.10;99.90;;;-141.84;100.00;16463.91;5072840;28;20225;-59
2022/06/02 01:48:51;;;;;;;17.83;16.13;;;10.00;99.90;;;-141.84;100.00;16467.97;5071264;28;20259;-59
2022/06/02 01:51:37;;;;;;;19.90;18.10;;;10.00;99.90;;;-141.84;100.00;16461.91;5072577;28;20382;-59
2022/06/02 01:54:18;;;;;;;19.93;18.00;;;9.90;99.90;;;-141.84;100.00;16478.13;5072650;28;20344;-58
2022/06/02 01:57:07;;;;;;;19.70;17.90;;;9.90;99.90;;;-141.84;100.00;16455.81;5072604;28;20236;-57
2022/06/02 02:00:00;;;;;;;15.03;13.53;;;9.90;99.90;;;-141.84;100.00;16445.66;5072788;28;20303;-62
2022/06/02 02:02:47;;;;;;;12.00;11.00;;;9.90;99.90;;;-141.84;100.00;16470.00;5072677;28;20319;-60
2022/06/02 02:05:53;;;;;;;11.10;10.10;;;9.80;99.90;;;-141.84;100.00;16470.00;5072635;28;20235;-59
2022/06/02 02:08:49;;;;;;;10.97;10.00;;;9.80;99.90;;;-141.84;100.00;16443.63;5072289;28;20231;-58
2022/06/02 02:11:41;;;;;;;10.57;9.67;;;9.80;99.90;;;-141.84;100.00;16447.69;5072235;28;20307;-59
2022/06/02 02:14:29;;;;;;;11.13;10.07;;;9.80;99.90;;;-141.84;100.00;16431.44;5072440;28;20654;-59
2022/06/02 02:17:19;;;;;;;12.07;11.00;;;9.80;99.90;;;-141.84;100.00;16427.38;5072219;28;20968;-59
2022/06/02 02:19:58;;;;;;;9.90;9.00;;;9.70;99.90;;;-141.84;100.00;16445.66;5072005;28;20716;-59
2022/06/02 02:22:42;;;;;;;9.90;9.03;;;9.70;99.90;;;-141.84;100.00;16459.88;5072158;28;20299;-60
2022/06/02 02:25:21;;;;;;;9.83;9.03;;;9.70;99.90;;;-141.84;100.00;16429.41;5072026;28;20673;-59
2022/06/02 02:28:05;;;;;;;9.87;9.07;;;9.70;99.90;;;-141.84;100.00;16441.59;5072545;28;20185;-59
2022/06/02 02:30:51;;;;;;;10.13;9.23;;;9.60;99.90;;;-141.84;100.00;16421.28;5072437;28;20287;-58
2022/06/02 02:33:37;;;;;;;9.40;8.60;;;9.60;99.90;;;-141.84;100.00;16431.44;5071938;28;20248;-59
2022/06/02 02:36:18;;;;;;;10.37;9.40;;;9.60;99.90;;;-141.84;100.00;16435.50;5071875;28;20263;-57
2022/06/02 02:39:00;;;;;;;10.00;9.13;;;9.60;99.90;;;-141.84;100.00;16423.31;5071867;28;20719;-59
2022/06/02 02:41:40;;;;;;;10.80;9.80;;;9.50;99.90;;;-141.84;100.00;16441.59;5071577;28;20318;-59
2022/06/02 02:44:20;;;;;;;11.90;10.80;;;9.50;99.90;;;-141.84;100.00;16425.34;5071431;28;20231;-59
2022/06/02 02:47:03;;;;;;;10.53;9.63;;;9.50;99.90;;;-141.84;99.41;16429.41;5071495;28;20604;-58
2022/06/02 02:49:42;;;;;;;11.97;10.87;;;9.50;99.90;;;-141.84;99.39;16411.13;5071745;28;20617;-60
2022/06/02 02:52:20;;;;;;;11.70;10.53;;;9.50;99.90;;;-141.84;100.00;16423.31;5071220;28;20187;-58
2022/06/02 02:55:00;;;;;;;11.20;10.20;;;9.50;99.90;;;-141.84;99.16;16415.19;5072213;28;20199;-58
2022/06/02 02:57:44;;;;;;;10.67;9.77;;;9.50;99.90;;;-141.84;99.25;16421.28;5071632;28;20207;-57
2022/06/02 03:00:20;;;;;;;11.80;10.70;;;9.50;99.90;;;-141.84;100.00;16431.44;5071444;28;20231;-58
2022/06/02 03:03:04;;;;;;;10.93;10.00;;;9.50;99.90;;;-141.84;100.00;16423.31;5071147;28;20303;-59
2022/06/02 03:05:51;;;;;;;12.60;11.30;;;9.40;99.90;;;-141.84;100.00;16382.69;5071431;28;20307;-58
2022/06/02 03:08:35;;;;;;;13.50;12.20;;;9.40;99.90;;;-141.84;100.00;16382.69;5070960;28;20308;-59
2022/06/02 03:11:24;;;;;;;12.87;11.77;;;9.40;99.90;;;-141.84;99.96;16405.03;5071288;28;20312;-58
2022/06/02 03:14:04;;;;;;;14.97;13.63;;;9.40;99.90;;;-141.84;99.95;16409.09;5071179;28;20254;-59
2022/06/02 03:16:37;;;;;;;15.67;14.17;;;9.40;99.90;;;-141.84;100.00;16433.47;5071397;28;20678;-58
2022/06/02 03:19:22;;;;;;;14.10;12.80;;;9.40;99.90;;;-141.84;100.00;16388.78;5071235;28;20659;-58
2022/06/02 03:21:58;;;;;;;12.67;11.57;;;9.40;99.90;;;-141.84;100.00;16405.03;5071821;28;20189;-59
2022/06/02 03:25:01;;;;;;;15.53;13.97;;;9.40;99.90;;;-141.84;99.84;16407.06;5070874;28;20435;-59
2022/06/02 03:27:48;;;;;;;13.20;11.97;;;9.40;99.90;;;-141.84;99.76;16400.97;5071042;28;20219;-60
2022/06/02 03:30:23;;;;;;;12.10;11.00;;;9.40;99.90;;;-141.84;99.64;16429.41;5070825;28;20682;-59
2022/06/02 03:33:13;;;;;;;12.27;11.17;;;9.40;99.90;;;-141.84;99.54;16386.75;5070892;28;20231;-57
2022/06/02 03:36:03;;;;;;;13.63;12.30;;;9.40;99.90;;;-141.84;99.38;16415.19;5050911;28;20236;-60
2022/06/02 03:38:56;;;;;;;12.23;11.13;;;9.50;99.90;;;-141.84;99.59;16392.84;5050498;28;20708;-60
2022/06/02 03:41:46;;;;;;;12.93;11.73;;;9.50;99.90;;;-141.84;99.55;16425.34;5055419;28;20223;-59
2022/06/02 03:44:27;;;;;;;13.57;12.37;;;9.50;99.90;;;-141.84;99.70;16372.53;5070586;28;20248;-60
2022/06/02 03:47:24;;;;;;;12.67;11.57;;;9.50;99.90;;;-141.84;98.65;16435.50;5070896;28;20323;-58
2022/06/02 03:50:19;;;;;;;11.70;10.60;;;9.50;99.90;;;-141.84;98.62;16429.41;5070860;28;20289;-59
2022/06/02 03:53:10;;;;;;;12.50;11.33;;;9.50;99.90;;;-141.84;97.75;16457.84;5070432;28;20224;-59
2022/06/02 03:55:56;;;;;;;12.10;10.67;;;9.60;99.90;;;-141.84;97.67;16459.88;5069989;28;20311;-58
2022/06/02 03:58:50;;;;;;;11.97;10.87;;;9.60;99.90;;;-141.84;98.40;16429.41;5070282;28;20224;-59
2022/06/02 04:01:27;;;;;;;11.00;10.10;;;9.60;99.90;;;-141.84;98.14;16441.59;5070683;28;20272;-60
2022/06/02 04:04:13;;;;;;;11.70;10.50;;;9.70;99.90;;;-141.84;97.28;16490.31;5071129;28;20184;-59
2022/06/02 04:07:04;;;;;;;11.53;10.43;;;9.70;99.90;;;-141.84;97.17;16488.28;5070608;28;20291;-57
2022/06/02 04:09:48;;;;;;;11.33;10.30;;;9.80;99.90;;;-141.84;96.59;16522.81;5071003;28;20224;-59
2022/06/02 04:15:48;;;;;;;11.80;10.63;;;10.00;99.90;;;-141.84;95.22;16573.56;5070176;28;20221;-57
2022/06/02 04:18:34;;;;;;;11.47;10.47;;;10.10;99.90;;;-141.84;94.83;16593.88;5070252;28;20229;-58
2022/06/02 04:21:15;;;;;;;10.90;9.90;;;10.20;99.90;;;-141.84;92.94;16687.28;5070476;28;20243;-58
2022/06/02 04:24:05;;;;;;;11.97;10.97;;;10.20;99.90;;;-141.84;93.62;16660.91;5070177;28;20227;-60
2022/06/02 04:27:02;;;;;;;11.13;10.13;;;10.30;99.90;;;-141.84;93.75;16638.56;5070207;28;20229;-59
2022/06/02 04:29:54;;;;;;;12.23;11.13;;;10.30;99.90;;;-141.84;92.67;16701.50;5070349;28;20235;-57
2022/06/02 04:32:40;;;;;;;12.30;11.20;;;10.50;99.90;;;-141.84;92.51;16713.69;5070549;28;20698;-58
2022/06/02 04:35:35;;;;;;;12.17;11.07;;;10.50;99.90;;;-141.84;92.43;16725.88;5069900;28;20273;-59
2022/06/02 04:38:19;;;;;;;13.17;11.93;;;10.50;99.90;;;-141.84;91.13;16796.97;5069716;28;20723;-59
2022/06/02 04:41:05;;;;;;;13.60;12.37;;;10.70;99.90;;;-141.84;91.10;16801.03;5069897;28;20655;-60
2022/06/02 04:43:47;;;;;;;12.70;11.50;;;10.80;99.90;;;-141.84;89.10;16896.47;5070313;28;20230;-59
2022/06/02 04:46:34;;;;;;;11.10;10.20;;;11.00;99.90;;;-141.84;86.35;17091.44;5070393;28;20181;-59
2022/06/02 04:49:15;;;;;;;13.67;12.47;;;11.10;99.90;;;-141.84;85.40;17229.53;5070120;28;20242;-60
2022/06/02 04:51:56;;;;;;;10.43;9.50;;;11.50;99.90;;;-141.84;76.63;17968.91;5070768;28;20185;-60
2022/06/02 04:54:43;;;;;;;8.03;7.43;;;12.60;99.90;;;-141.84;65.73;18584.47;5069618;28;20224;-59
2022/06/02 04:57:24;;;;;;;7.20;6.60;;;14.10;99.90;;;-141.84;56.86;18954.25;5070074;28;20665;-60
2022/06/02 05:00:04;;;;;;;8.77;6.38;;;15.60;99.90;;;-141.84;48.45;19224.50;5070056;28;20319;-59
2022/06/02 05:02:52;;;;;;;6.53;6.03;;;17.00;99.90;;;-141.84;44.63;19494.78;5070184;28;20331;-57
2022/06/02 05:05:33;;;;;;;6.88;6.28;;;17.90;99.90;;;-141.84;41.79;19704.09;5069812;28;20739;-58
2022/06/02 05:08:30;;;;;;;6.40;5.88;;;18.70;99.90;;;-141.84;40.49;19795.53;5073422;28;20232;-56
2022/06/02 05:11:17;;;;;;;6.43;5.97;;;19.10;99.90;;;-141.84;39.65;19897.16;5073425;28;20234;-58
2022/06/02 05:14:03;;;;;;;6.82;6.10;;;19.40;99.90;;;-141.84;38.35;20029.28;5073072;28;20803;-58
2022/06/02 05:16:47;;;;;;;7.22;6.70;;;19.60;99.90;;;-141.84;37.50;20100.41;5073636;28;20618;-58
2022/06/02 05:20:01;;;;;;;6.65;6.15;;;19.40;99.90;;;-141.84;38.60;20008.94;5073403;28;20196;-56
2022/06/02 05:23:06;;;;;;;7.20;6.60;;;19.40;99.90;;;-141.84;38.15;20031.31;5073211;28;20599;-57
2022/06/02 05:26:23;;;;;;;7.93;7.32;;;19.40;99.90;;;-141.84;37.53;20074.00;5073064;28;20799;-58
2022/06/02 05:29:29;;;;;;;6.88;6.38;;;19.30;99.90;;;-141.84;38.97;19941.88;5036821;28;20712;-57
2022/06/02 05:32:27;;;;;;;7.03;6.53;;;19.30;99.90;;;-141.84;39.66;19862.63;5073143;28;20224;-55
2022/06/02 05:35:45;;;;;;;7.78;7.18;;;18.60;99.90;;;-141.84;43.39;19523.22;5072509;28;20225;-59
2022/06/02 05:38:44;;;;;;;7.97;7.38;;;17.80;99.90;;;-141.84;48.24;19236.69;5072933;28;20248;-56
2022/06/02 05:41:36;;;;;;;8.25;7.55;;;17.00;99.90;;;-141.84;53.02;19049.75;5072563;28;20220;-56
2022/06/02 05:44:21;;;;;;;8.60;6.85;;;16.40;99.90;;;-141.84;53.99;18980.66;5072832;28;20256;-54
2022/06/02 05:47:17;;;;;;;8.27;7.68;;;16.00;99.90;;;-141.84;55.31;18935.97;5072611;28;20775;-58
2022/06/02 05:49:56;;;;;;;8.43;7.72;;;15.70;99.90;;;-141.84;56.21;18893.28;5072612;28;20224;-59
2022/06/02 05:52:40;;;;;;;8.65;7.85;;;15.50;99.90;;;-141.84;57.79;18840.47;5072797;28;20224;-57
2022/06/02 05:55:32;;;;;;;8.30;7.60;;;15.50;99.90;;;-141.84;57.10;18866.88;5072692;28;20212;-56
2022/06/02 05:58:35;;;;;;;8.48;7.78;;;15.30;99.90;;;-141.84;58.19;18820.16;5072980;28;20564;-55
2022/06/02 06:01:16;;;;;;;8.00;7.30;;;15.30;99.90;;;-141.84;58.69;18838.44;5072397;28;20258;-55
2022/06/02 06:04:31;;;;;;;7.95;7.35;;;15.10;99.90;;;-141.84;58.13;18797.78;5073266;28;20310;-57
2022/06/02 06:07:09;;;;;;;8.20;7.50;;;15.20;99.90;;;-141.84;58.75;18850.63;5072465;28;20228;-58
2022/06/02 06:09:55;;;;;;;7.78;7.18;;;15.30;99.90;;;-141.84;57.29;18850.63;5072963;28;20189;-55
2022/06/02 06:12:46;;;;;;;7.53;6.93;;;15.30;99.90;;;-141.84;56.91;18834.38;5071877;28;20239;-56
2022/06/02 06:15:36;;;;;;;7.28;6.57;;;15.30;99.90;;;-141.84;58.20;18777.47;5072247;28;20235;-59
2022/06/02 06:18:21;;;;;;;7.20;6.60;;;15.40;99.90;;;-141.84;57.92;18793.72;5071416;28;20760;-59
2022/06/02 06:21:08;;;;;;;6.20;5.70;;;15.60;99.90;;;-141.84;55.54;18895.31;5071990;28;20232;-60
2022/06/02 06:24:17;;;;;;;6.18;5.45;;;15.70;99.90;;;-141.84;53.93;18901.41;5072021;28;20224;-59
2022/06/02 06:26:58;;;;;;;6.97;5.72;;;15.70;99.90;;;-141.84;55.37;18875.00;5070450;28;20270;-60
2022/06/02 06:29:43;;;;;;;5.85;5.30;;;15.70;99.90;;;-141.84;56.30;18854.69;5071863;28;20751;-61
2022/06/02 06:32:22;;;;;;;6.72;5.95;;;15.80;99.90;;;-141.84;54.96;18868.91;5051322;28;20283;-60
2022/06/02 06:35:06;;;;;;;5.40;4.90;;;15.70;99.90;;;-141.84;55.90;18870.94;5064841;28;20343;-60
2022/06/02 06:38:20;;;;;;;5.90;5.40;;;15.70;99.90;;;-141.84;55.14;18895.31;5071448;28;20247;-59
2022/06/02 06:41:23;;;;;;;6.07;5.57;;;15.60;99.90;;;-141.84;55.14;18881.09;5062448;28;20224;-59
2022/06/02 06:44:16;;;;;;;5.82;5.32;;;15.80;99.90;;;-141.84;55.49;18885.16;5071527;28;20220;-60
2022/06/02 06:46:56;;;;;;;6.20;5.70;;;15.80;99.90;;;-141.84;55.04;18846.56;5071618;28;20228;-58
2022/06/02 06:49:44;;;;;;;6.32;5.82;;;15.80;99.90;;;-141.84;55.13;18870.94;5071392;28;20311;-60
2022/06/02 06:52:40;;;;;;;5.72;4.90;;;15.70;99.90;;;-141.84;56.16;18879.06;5071308;28;20276;-59
2022/06/02 06:55:25;;;;;;;6.20;5.60;;;15.90;99.90;;;-141.84;54.59;18905.47;5071415;28;20272;-61
2022/06/02 06:58:08;;;;;;;6.70;6.10;;;16.00;99.90;;;-141.84;55.04;18895.31;5071204;28;20778;-60
2022/06/02 07:00:46;;;;;;;6.20;5.60;;;16.00;99.90;;;-141.84;52.38;18960.34;5071208;28;20247;-59
2022/06/02 07:03:27;;;;;;;5.32;4.93;;;16.10;99.90;;;-141.84;53.98;18931.91;5070796;28;20228;-61
2022/06/02 07:06:07;;;;;;;5.60;5.10;;;15.90;99.90;;;-141.84;53.75;18940.03;5070975;28;20240;-63
2022/06/02 07:08:41;;;;;;;5.63;4.93;;;15.90;99.90;;;-141.84;55.70;18858.75;5070641;28;20224;-60
2022/06/02 07:14:14;;;;;;;7.07;6.40;;;16.00;99.90;;;-141.84;54.10;18915.63;5070673;28;20232;-62
2022/06/02 07:16:48;;;;;;;5.90;5.50;;;16.00;99.90;;;-141.84;54.71;18915.63;5070904;28;20570;-60
2022/06/02 07:19:32;;;;;;;5.80;5.30;;;16.10;99.90;;;-141.84;53.08;18950.19;5070854;28;20283;-59
2022/06/02 07:22:14;;;;;;;4.78;4.38;;;16.10;99.90;;;-141.84;54.67;18881.09;5071300;28;20191;-60
2022/06/02 07:24:54;;;;;;;5.43;4.90;;;15.90;99.90;;;-141.84;54.73;18877.03;5070978;28;20743;-60
2022/06/02 07:27:34;;;;;;;5.35;4.85;;;15.80;99.90;;;-141.84;54.31;18883.13;5070065;28;20228;-60
2022/06/02 07:30:28;;;;;;;5.38;4.97;;;15.80;99.90;;;-141.84;53.51;18907.50;5070294;28;20242;-60
2022/06/02 07:33:29;;;;;;;5.35;4.95;;;15.70;99.90;;;-141.84;52.02;18988.78;5070311;28;20247;-60
2022/06/02 07:36:52;;;;;;;6.30;5.70;;;16.00;99.90;;;-141.84;50.74;19027.41;5050487;28;20335;-59
2022/06/02 07:39:54;;;;;;;6.80;5.13;;;16.20;99.90;;;-141.84;50.43;19021.31;5031888;28;20229;-56
2022/06/02 07:42:56;;;;;;;4.80;4.40;;;16.20;99.90;;;-141.84;51.14;19015.19;5063075;28;20247;-60
2022/06/02 07:45:35;;;;;;;4.90;4.53;;;16.10;99.90;;;-141.84;51.64;19013.16;5070199;28;20247;-58
2022/06/02 07:48:45;;;;;;;4.10;3.70;;;16.10;99.90;;;-141.84;50.01;19033.50;5069781;28;20715;-61
2022/06/02 07:51:24;;;;;;;5.10;4.60;;;16.40;99.90;;;-141.84;50.49;19037.56;5069794;28;20260;-59
2022/06/02 07:54:16;;;;;;;4.68;4.28;;;16.30;99.90;;;-141.84;51.13;19033.50;5069914;28;20323;-59
2022/06/02 07:57:04;;;;;;;3.75;3.45;;;16.40;99.90;;;-141.84;50.09;19041.63;5069880;28;20224;-61
2022/06/02 07:59:51;;;;;;;3.58;3.28;;;16.30;99.90;;;-141.84;49.64;19098.50;5070049;28;20311;-59
2022/06/02 08:02:41;;;;;;;4.00;3.70;;;16.40;99.90;;;-141.84;48.76;19088.34;5069930;28;20741;-59
2022/06/02 08:05:22;;;;;;;4.97;3.33;;;16.50;99.90;;;-141.84;48.32;19084.28;5070067;28;20220;-63
2022/06/02 08:07:55;;;;;;;3.78;3.47;;;16.40;99.90;;;-141.84;47.53;19163.53;5070011;28;20228;-60
2022/06/02 08:10:41;;;;;;;3.60;3.30;;;16.40;99.90;;;-141.84;48.79;19068.03;5069996;28;20224;-60
2022/06/02 08:13:23;;;;;;;3.60;3.30;;;16.30;99.90;;;-141.84;50.14;19037.56;5069781;28;20671;-59
2022/06/02 08:15:58;;;;;;;3.20;2.90;;;16.20;99.90;;;-141.84;50.20;19003.00;5070192;28;20189;-59
2022/06/02 08:18:59;;;;;;;4.75;4.00;;;16.10;99.90;;;-141.84;51.32;18944.09;5069806;28;20236;-59
2022/06/02 08:21:37;;;;;;;4.13;3.78;;;16.00;99.90;;;-141.84;52.28;18966.44;5070128;28;20204;-59
2022/06/02 08:24:50;;;;;;;4.03;3.72;;;15.90;99.90;;;-141.84;50.45;19017.25;5068797;28;20225;-57
2022/06/02 08:27:58;;;;;;;4.35;4.00;;;16.10;99.90;;;-141.84;50.90;19045.69;5069406;28;20228;-60
2022/06/02 08:30:41;;;;;;;4.70;4.30;;;16.20;99.90;;;-141.84;50.31;19041.63;5069287;28;20235;-57
2022/06/02 08:33:42;;;;;;;5.78;3.40;;;16.20;99.90;;;-141.84;50.43;19078.19;5069329;28;20230;-59
2022/06/02 08:36:15;;;;;;;4.10;3.70;;;16.50;99.90;;;-141.84;48.12;19120.88;5049078;28;20233;-59
2022/06/02 08:39:10;;;;;;;3.95;3.25;;;16.50;99.90;;;-141.84;48.82;19078.19;5063452;28;20244;-61
2022/06/02 08:42:16;;;;;;;3.90;3.60;;;16.50;99.90;;;-141.84;48.29;19082.25;5071019;28;20270;-59
2022/06/02 08:45:38;;;;;;;3.60;3.30;;;16.40;99.90;;;-141.84;49.62;19049.75;5053485;28;20316;-61
2022/06/02 08:49:20;;;;;;;5.45;4.90;;;16.50;99.90;;;-141.84;48.75;19098.50;5053254;28;20253;-62
2022/06/02 08:53:07;;;;;;;5.00;4.50;;;16.60;99.90;;;-141.84;49.28;19053.81;5053398;28;20284;-59
2022/06/02 08:56:07;;;;;;;4.60;4.30;;;16.60;99.90;;;-141.84;48.57;19108.69;5053128;28;20229;-60
2022/06/02 08:59:31;;;;;;;4.45;4.05;;;16.70;99.90;;;-141.84;48.71;19114.78;5053134;28;20300;-60
2022/06/02 09:02:33;;;;;;;4.90;4.50;;;16.70;99.90;;;-141.84;47.35;19151.34;5053361;28;20233;-58
2022/06/02 09:06:10;;;;;;;5.18;4.78;;;16.90;99.90;;;-141.84;47.08;19159.47;5053186;28;20231;-59
2022/06/02 09:09:24;;;;;;;5.03;4.63;;;17.20;99.90;;;-141.84;47.03;19122.91;5052996;28;20225;-60
2022/06/02 09:12:19;;;;;;;4.85;4.45;;;17.00;99.90;;;-141.84;48.04;19110.72;5052920;28;20331;-58
2022/06/02 09:15:46;;;;;;;3.65;3.30;;;16.70;99.90;;;-141.84;49.43;19037.56;5052977;28;20257;-59
2022/06/02 09:18:49;;;;;;;3.92;3.58;;;16.40;99.90;;;-141.84;50.15;19047.72;5025131;28;20233;-59
2022/06/02 09:22:02;;;;;;;4.47;4.07;;;16.40;99.90;;;-141.84;47.96;19102.56;5053073;28;20217;-59
2022/06/02 09:24:42;;;;;;;4.10;3.78;;;16.60;99.90;;;-141.84;45.85;19220.44;5052491;28;20223;-61
2022/06/02 09:28:08;;;;;;;3.45;3.15;;;17.00;99.90;;;-141.84;43.86;19313.91;5052694;28;20228;-59
2022/06/02 09:30:56;;;;;;;2.70;2.50;;;17.30;99.90;;;-141.84;43.23;19320.00;5019613;28;20237;-59
2022/06/02 09:34:26;;;;;;;3.15;2.88;;;17.50;99.90;;;-141.84;43.77;19261.06;5053902;28;20233;-60
2022/06/02 09:37:25;;;;;;;3.42;2.70;;;17.40;99.90;;;-141.84;44.35;19269.22;5073250;28;20629;-58
2022/06/02 09:40:34;;;;;;;3.47;3.00;;;17.30;99.90;;;-141.84;44.07;19297.66;5072114;28;20307;-60
2022/06/02 09:43:36;;;;;;;3.22;2.92;;;17.50;99.90;;;-141.84;42.87;19354.56;5072713;28;20224;-59
2022/06/02 09:46:39;;;;;;;3.20;2.90;;;17.60;99.90;;;-141.84;43.03;19403.31;5072398;28;20191;-58
2022/06/02 09:49:46;;;;;;;4.03;3.63;;;17.90;99.90;;;-141.84;43.08;19389.09;5065353;28;20767;-59
2022/06/02 09:52:33;;;;;;;3.80;3.50;;;18.00;99.90;;;-141.84;43.00;19391.13;5071829;28;20300;-59
2022/06/02 09:55:29;;;;;;;3.10;2.90;;;18.00;99.90;;;-141.84;43.01;19332.19;5072516;28;20558;-59
2022/06/02 09:58:34;;;;;;;2.65;2.50;;;18.00;99.90;;;-141.84;42.27;19362.69;5067400;28;20327;-60
2022/06/02 10:01:29;;;;;;;5.93;3.10;;;17.90;99.90;;;-141.84;42.49;19368.78;5054775;28;20230;-59
2022/06/02 10:04:42;;;;;;;3.80;2.88;;;17.70;99.90;;;-141.84;42.06;19387.06;5072858;28;20199;-59
2022/06/02 10:07:52;;;;;;;3.20;2.45;;;17.70;99.90;;;-141.84;41.77;19448.03;5072399;28;20311;-57
2022/06/02 10:10:55;;;;;;;3.30;3.00;;;18.10;99.90;;;-141.84;40.95;19482.56;5072043;28;20212;-57
2022/06/02 10:14:01;;;;;;;3.95;2.92;;;18.30;99.90;;;-141.84;42.30;19423.66;5071928;28;20747;-61
2022/06/02 10:17:16;;;;;;;3.95;3.55;;;18.10;99.90;;;-141.84;42.11;19389.09;5071629;28;20759;-63
2022/06/02 10:20:43;;;;;;;3.35;2.75;;;18.00;99.90;;;-141.84;42.97;19378.94;5071927;28;20303;-59
2022/06/02 10:23:49;;;;;;;2.60;2.40;;;17.90;99.90;;;-141.84;40.69;19523.22;5052734;28;20804;-60
2022/06/02 10:26:41;;;;;;;2.85;2.60;;;18.30;99.90;;;-141.84;40.63;19545.56;5071592;28;20727;-60
2022/06/02 10:30:21;;;;;;;3.63;3.05;;;18.60;99.90;;;-141.84;39.47;19610.59;5072079;28;20312;-59
2022/06/02 10:33:44;;;;;;;2.40;2.20;;;18.90;99.90;;;-141.84;39.39;19708.16;5009853;28;20309;-57
2022/06/02 10:36:51;;;;;;;4.22;2.90;;;19.30;99.90;;;-141.84;39.19;19647.19;4949917;28;20619;-59
2022/06/02 10:39:54;;;;;;;4.10;3.70;;;19.30;99.90;;;-141.84;38.91;19576.06;5046997;28;20786;-59
2022/06/02 10:43:15;;;;;;;4.60;4.05;;;19.00;99.90;;;-141.84;39.25;19582.16;5053787;28;20324;-59
2022/06/02 10:46:34;;;;;;;3.33;2.95;;;18.80;99.90;;;-141.84;38.63;19683.78;5063994;28;20309;-59
2022/06/02 10:49:26;;;;;;;2.67;2.40;;;18.80;99.90;;;-141.84;39.25;19645.16;5055842;28;20591;-59
2022/06/02 10:52:50;;;;;;;3.03;2.60;;;18.90;99.90;;;-141.84;39.33;19551.69;5071764;28;20207;-60
2022/06/02 10:55:59;;;;;;;2.40;2.20;;;18.80;99.90;;;-141.84;40.60;19511.03;5071319;28;20236;-60
2022/06/02 10:59:25;;;;;;;2.65;2.40;;;18.60;99.90;;;-141.84;39.85;19533.38;5071503;28;20299;-59
2022/06/02 11:03:03;;;;;;;2.20;2.10;;;18.50;99.90;;;-141.84;39.55;19569.97;5070963;28;20564;-58
2022/06/02 11:06:44;;;;;;;2.92;2.20;;;18.60;99.90;;;-141.84;38.47;19665.47;5071019;28;20224;-58
2022/06/02 11:10:08;;;;;;;2.40;2.20;;;18.90;99.90;;;-141.84;37.77;19724.41;5071008;28;20225;-59
2022/06/02 11:13:17;;;;;;;2.20;2.00;;;19.20;99.90;;;-141.84;37.65;19685.81;5070742;28;20213;-59
2022/06/02 11:16:39;;;;;;;2.42;1.90;;;19.40;99.90;;;-141.84;38.54;19667.50;5071130;28;20240;-59
2022/06/02 11:19:56;;;;;;;2.00;1.90;;;19.40;99.90;;;-141.84;37.24;19726.44;5071176;28;20224;-60
2022/06/02 11:23:25;;;;;;;2.20;1.80;;;19.60;99.90;;;-141.84;37.31;19732.53;5063478;28;20262;-59
2022/06/02 11:26:52;;;;;;;2.30;2.10;;;19.70;99.90;;;-141.84;36.89;19756.94;5069025;28;20584;-58
2022/06/02 11:30:10;;;;;;;2.33;2.13;;;19.50;99.90;;;-141.84;38.52;19675.63;5071233;28;20414;-58
2022/06/02 11:33:13;;;;;;;2.72;2.53;;;19.40;99.90;;;-141.84;38.44;19649.22;5071231;28;20367;-59
2022/06/02 11:36:31;;;;;;;2.55;2.35;;;19.20;99.90;;;-141.84;38.28;19628.91;5051210;28;20252;-60
2022/06/02 11:39:51;;;;;;;2.00;1.90;;;19.10;99.90;;;-141.84;38.07;19655.31;5033531;28;20225;-60
2022/06/02 11:42:53;;;;;;;2.28;2.08;;;19.00;99.90;;;-141.84;38.29;19706.13;5052568;28;20222;-59
2022/06/02 11:45:57;;;;;;;2.00;1.70;;;19.10;99.90;;;-141.84;37.47;19714.25;5071000;28;20281;-59
2022/06/02 11:49:15;;;;;;;2.90;2.05;;;19.20;99.90;;;-141.84;37.34;19771.16;5070999;28;20276;-60
2022/06/02 11:52:20;;;;;;;2.53;2.33;;;19.50;99.90;;;-141.84;37.29;19758.97;5070545;28;20325;-59
2022/06/02 11:55:31;;;;;;;3.25;2.30;;;19.50;99.90;;;-141.84;37.62;19758.97;5070770;28;20216;-59
2022/06/02 11:58:30;;;;;;;2.10;2.00;;;19.80;99.90;;;-141.84;37.15;19805.72;5068318;28;20312;-59
2022/06/02 12:01:26;;;;;;;3.28;2.50;;;20.00;99.90;;;-141.84;36.95;19797.59;5068690;28;20574;-59